AAL423 KOMA-KDFW
Flight info
| Callsign | AAL423 |
|---|---|
| Flight time | N/A |
| Altitude | 38000 |
| Route | PWE PER IBAKE VKTRY2 |
| Aircraft | B738/M-SDE2E3FGHIRWXY/LB1 |
Departure
| Time | 2026-04-24 14:30 |
|---|---|
| Airport | Eppley Airfield (KOMA) |
Arrival
| Time | N/A |
|---|---|
| Airport | Dallas Fort Worth International Airport (KDFW) |
| Time | Latitude | Longitude | Altitude | Speed | Heading |
|---|---|---|---|---|---|
| 2026-04-24 14:13 | 41.29768 | -95.89892 | 984 ft | 0 kts | 90° |
| 2026-04-24 14:20 | 41.29768 | -95.89893 | 984 ft | 1 kts | 90° |
| 2026-04-24 14:20 | 41.29768 | -95.89925 | 987 ft | 4 kts | 90° |
| 2026-04-24 14:21 | 41.29766 | -95.89956 | 988 ft | 4 kts | 48° |
| 2026-04-24 14:21 | 41.29746 | -95.89968 | 988 ft | 3 kts | 0° |
| 2026-04-24 14:21 | 41.29725 | -95.89968 | 992 ft | 4 kts | 360° |
| 2026-04-24 14:21 | 41.29700 | -95.89966 | 984 ft | 4 kts | 331° |
| 2026-04-24 14:22 | 41.29680 | -95.89944 | 992 ft | 4 kts | 315° |
| 2026-04-24 14:22 | 41.29661 | -95.89928 | 984 ft | 4 kts | 8° |
| 2026-04-24 14:22 | 41.29638 | -95.89933 | 993 ft | 1 kts | 10° |
| 2026-04-24 14:25 | 41.29639 | -95.89933 | 993 ft | 1 kts | 10° |
| 2026-04-24 14:25 | 41.29654 | -95.89924 | 989 ft | 4 kts | 36° |
| 2026-04-24 14:26 | 41.29659 | -95.89878 | 984 ft | 7 kts | 96° |
| 2026-04-24 14:26 | 41.29652 | -95.89791 | 991 ft | 12 kts | 96° |
| 2026-04-24 14:26 | 41.29605 | -95.89692 | 984 ft | 15 kts | 153° |
| 2026-04-24 14:26 | 41.29508 | -95.89610 | 989 ft | 19 kts | 175° |
| 2026-04-24 14:27 | 41.29367 | -95.89609 | 986 ft | 22 kts | 180° |
| 2026-04-24 14:27 | 41.29211 | -95.89610 | 987 ft | 20 kts | 180° |
| 2026-04-24 14:27 | 41.29110 | -95.89553 | 989 ft | 17 kts | 99° |
| 2026-04-24 14:27 | 41.29108 | -95.89382 | 984 ft | 20 kts | 90° |
| 2026-04-24 14:28 | 41.29109 | -95.89182 | 984 ft | 23 kts | 89° |
| 2026-04-24 14:28 | 41.29110 | -95.88972 | 984 ft | 18 kts | 90° |
| 2026-04-24 14:28 | 41.29165 | -95.88815 | 990 ft | 20 kts | 53° |
| 2026-04-24 14:28 | 41.29243 | -95.88671 | 986 ft | 15 kts | 54° |
| 2026-04-24 14:29 | 41.29342 | -95.88669 | 986 ft | 17 kts | 322° |
| 2026-04-24 14:29 | 41.29440 | -95.88765 | 982 ft | 20 kts | 325° |
| 2026-04-24 14:29 | 41.29709 | -95.89025 | 986 ft | 83 kts | 322° |
| 2026-04-24 14:29 | 41.30360 | -95.89627 | 1000 ft | 142 kts | 326° |
| 2026-04-24 14:30 | 41.30914 | -95.90152 | 1309 ft | 151 kts | 326° |
| 2026-04-24 14:30 | 41.32142 | -95.91358 | 2030 ft | 182 kts | 326° |
| 2026-04-24 14:30 | 41.33268 | -95.92386 | 2303 ft | 209 kts | 328° |
| 2026-04-24 14:30 | 41.34520 | -95.93469 | 2824 ft | 221 kts | 330° |
| 2026-04-24 14:31 | 41.35684 | -95.94892 | 3499 ft | 234 kts | 307° |
| 2026-04-24 14:31 | 41.36305 | -95.96897 | 4348 ft | 239 kts | 281° |
| 2026-04-24 14:31 | 41.36245 | -95.99088 | 5243 ft | 238 kts | 257° |
| 2026-04-24 14:31 | 41.35522 | -96.01033 | 6102 ft | 242 kts | 234° |
| 2026-04-24 14:32 | 41.34205 | -96.02525 | 6752 ft | 253 kts | 211° |
| 2026-04-24 14:32 | 41.33105 | -96.03092 | 7199 ft | 260 kts | 197° |
| 2026-04-24 14:32 | 41.30640 | -96.03307 | 8064 ft | 270 kts | 183° |
| 2026-04-24 14:32 | 41.28768 | -96.03276 | 8699 ft | 275 kts | 182° |
| 2026-04-24 14:33 | 41.26823 | -96.03232 | 9228 ft | 290 kts | 182° |
| 2026-04-24 14:33 | 41.24748 | -96.03186 | 9789 ft | 304 kts | 182° |
| 2026-04-24 14:33 | 41.22605 | -96.03139 | 10414 ft | 315 kts | 182° |
| 2026-04-24 14:33 | 41.21082 | -96.03105 | 10556 ft | 333 kts | 182° |
| 2026-04-24 14:34 | 41.18681 | -96.03053 | 10754 ft | 358 kts | 182° |
| 2026-04-24 14:34 | 41.16110 | -96.03006 | 10929 ft | 381 kts | 182° |
| 2026-04-24 14:34 | 41.13406 | -96.02961 | 11300 ft | 395 kts | 182° |
| 2026-04-24 14:34 | 41.10666 | -96.02912 | 11892 ft | 401 kts | 182° |
| 2026-04-24 14:35 | 41.07845 | -96.03036 | 12670 ft | 400 kts | 190° |
| 2026-04-24 14:35 | 41.05126 | -96.03548 | 13438 ft | 401 kts | 193° |
| 2026-04-24 14:35 | 41.02335 | -96.04171 | 14158 ft | 403 kts | 194° |
| 2026-04-24 14:35 | 40.99595 | -96.04794 | 14860 ft | 405 kts | 194° |
| 2026-04-24 14:36 | 40.96821 | -96.05408 | 15592 ft | 405 kts | 194° |
| 2026-04-24 14:36 | 40.94022 | -96.06006 | 16239 ft | 408 kts | 193° |
| 2026-04-24 14:36 | 40.91208 | -96.06589 | 16916 ft | 410 kts | 193° |
| 2026-04-24 14:36 | 40.88384 | -96.07161 | 17623 ft | 411 kts | 193° |
| 2026-04-24 14:37 | 40.85552 | -96.07727 | 18288 ft | 413 kts | 193° |
| 2026-04-24 14:37 | 40.82709 | -96.08291 | 18839 ft | 415 kts | 193° |
| 2026-04-24 14:37 | 40.79845 | -96.08858 | 19381 ft | 417 kts | 193° |
| 2026-04-24 14:37 | 40.76969 | -96.09428 | 19897 ft | 419 kts | 193° |
| 2026-04-24 14:38 | 40.74076 | -96.09999 | 20430 ft | 421 kts | 193° |
| 2026-04-24 14:38 | 40.71177 | -96.10571 | 21000 ft | 422 kts | 194° |
| 2026-04-24 14:38 | 40.68266 | -96.11145 | 21514 ft | 424 kts | 194° |
| 2026-04-24 14:38 | 40.65341 | -96.11722 | 21993 ft | 426 kts | 194° |
| 2026-04-24 14:39 | 40.62399 | -96.12302 | 22472 ft | 429 kts | 194° |
| 2026-04-24 14:39 | 40.59445 | -96.12884 | 22939 ft | 431 kts | 194° |
| 2026-04-24 14:39 | 40.56471 | -96.13469 | 23407 ft | 433 kts | 194° |
| 2026-04-24 14:39 | 40.53487 | -96.14056 | 23802 ft | 435 kts | 194° |
| 2026-04-24 14:40 | 40.50490 | -96.14644 | 24183 ft | 436 kts | 194° |
| 2026-04-24 14:40 | 40.47479 | -96.15234 | 24559 ft | 438 kts | 194° |
| 2026-04-24 14:40 | 40.44463 | -96.15825 | 24936 ft | 439 kts | 194° |
| 2026-04-24 14:40 | 40.41427 | -96.16419 | 25288 ft | 441 kts | 194° |
| 2026-04-24 14:41 | 40.38389 | -96.17014 | 25632 ft | 443 kts | 194° |
| 2026-04-24 14:41 | 40.35336 | -96.17611 | 25966 ft | 444 kts | 194° |
| 2026-04-24 14:41 | 40.32271 | -96.18209 | 26291 ft | 446 kts | 194° |
| 2026-04-24 14:41 | 40.29197 | -96.18809 | 26607 ft | 447 kts | 194° |
| 2026-04-24 14:42 | 40.26118 | -96.19409 | 26966 ft | 448 kts | 194° |
| 2026-04-24 14:42 | 40.23035 | -96.20009 | 27306 ft | 448 kts | 194° |
| 2026-04-24 14:42 | 40.19958 | -96.20616 | 27751 ft | 446 kts | 195° |
| 2026-04-24 14:42 | 40.16933 | -96.21380 | 28275 ft | 441 kts | 197° |
| 2026-04-24 14:43 | 40.13952 | -96.22229 | 28794 ft | 437 kts | 198° |
| 2026-04-24 14:43 | 40.10992 | -96.23109 | 29250 ft | 435 kts | 198° |
| 2026-04-24 14:43 | 40.08044 | -96.23994 | 29639 ft | 434 kts | 198° |
| 2026-04-24 14:43 | 40.05130 | -96.24861 | 30344 ft | 425 kts | 198° |
| 2026-04-24 14:44 | 40.02260 | -96.25706 | 30828 ft | 422 kts | 198° |
| 2026-04-24 14:44 | 39.99394 | -96.26545 | 31081 ft | 423 kts | 198° |
| 2026-04-24 14:44 | 39.96513 | -96.27386 | 31289 ft | 426 kts | 198° |
| 2026-04-24 14:44 | 39.93621 | -96.28224 | 31611 ft | 425 kts | 198° |
| 2026-04-24 14:45 | 39.90783 | -96.29042 | 32013 ft | 422 kts | 198° |
| 2026-04-24 14:45 | 39.87884 | -96.29875 | 32397 ft | 421 kts | 198° |
| 2026-04-24 14:45 | 39.85027 | -96.30696 | 32680 ft | 420 kts | 198° |
| 2026-04-24 14:45 | 39.82192 | -96.31508 | 33163 ft | 415 kts | 198° |
| 2026-04-24 14:46 | 39.79380 | -96.32314 | 33528 ft | 414 kts | 198° |
| 2026-04-24 14:46 | 39.76566 | -96.33121 | 33773 ft | 415 kts | 198° |
| 2026-04-24 14:46 | 39.73744 | -96.33931 | 34003 ft | 415 kts | 198° |
| 2026-04-24 14:46 | 39.70923 | -96.34740 | 34263 ft | 414 kts | 198° |
| 2026-04-24 14:47 | 39.68147 | -96.35534 | 34516 ft | 414 kts | 198° |
| 2026-04-24 14:47 | 39.65334 | -96.36338 | 34735 ft | 414 kts | 198° |
| 2026-04-24 14:47 | 39.62521 | -96.37142 | 34928 ft | 414 kts | 198° |
| 2026-04-24 14:47 | 39.59712 | -96.37942 | 35266 ft | 411 kts | 198° |
| 2026-04-24 14:48 | 39.56923 | -96.38736 | 35548 ft | 410 kts | 198° |
| 2026-04-24 14:48 | 39.54133 | -96.39531 | 35717 ft | 411 kts | 198° |
| 2026-04-24 14:48 | 39.51332 | -96.40330 | 35883 ft | 413 kts | 198° |
| 2026-04-24 14:48 | 39.48529 | -96.41127 | 36099 ft | 412 kts | 198° |
| 2026-04-24 14:49 | 39.45730 | -96.41922 | 36350 ft | 412 kts | 198° |
| 2026-04-24 14:49 | 39.42933 | -96.42716 | 36545 ft | 412 kts | 198° |
| 2026-04-24 14:49 | 39.40128 | -96.43512 | 36684 ft | 413 kts | 198° |
| 2026-04-24 14:49 | 39.37333 | -96.44304 | 36970 ft | 410 kts | 198° |
| 2026-04-24 14:50 | 39.34545 | -96.45092 | 37175 ft | 411 kts | 198° |
| 2026-04-24 14:50 | 39.31747 | -96.45885 | 37289 ft | 412 kts | 198° |
| 2026-04-24 14:50 | 39.28941 | -96.46679 | 37471 ft | 413 kts | 198° |
| 2026-04-24 14:50 | 39.26132 | -96.47473 | 37584 ft | 415 kts | 198° |
| 2026-04-24 14:51 | 39.23303 | -96.48273 | 37681 ft | 417 kts | 198° |
| 2026-04-24 14:51 | 39.20470 | -96.49071 | 37885 ft | 416 kts | 198° |
| 2026-04-24 14:51 | 39.17630 | -96.49872 | 37870 ft | 419 kts | 198° |
| 2026-04-24 14:52 | 39.11966 | -96.51463 | 37888 ft | 414 kts | 199° |
| 2026-04-24 14:52 | 39.06353 | -96.53037 | 37888 ft | 411 kts | 199° |
| 2026-04-24 14:53 | 39.00782 | -96.54600 | 37886 ft | 409 kts | 199° |
| 2026-04-24 14:53 | 38.95229 | -96.56156 | 37885 ft | 408 kts | 199° |
| 2026-04-24 14:54 | 38.89690 | -96.57706 | 37894 ft | 407 kts | 199° |
| 2026-04-24 14:54 | 38.84147 | -96.59255 | 37898 ft | 408 kts | 199° |
| 2026-04-24 14:55 | 38.79527 | -96.60544 | 37902 ft | 410 kts | 199° |
| 2026-04-24 14:55 | 38.72996 | -96.62363 | 37884 ft | 412 kts | 199° |
| 2026-04-24 14:56 | 38.67386 | -96.63921 | 37867 ft | 413 kts | 199° |
| 2026-04-24 14:56 | 38.61760 | -96.65481 | 37870 ft | 414 kts | 199° |
| 2026-04-24 14:57 | 38.56153 | -96.67034 | 37874 ft | 416 kts | 199° |
| 2026-04-24 14:57 | 38.50486 | -96.68601 | 37871 ft | 417 kts | 199° |
| 2026-04-24 14:58 | 38.44809 | -96.70168 | 37832 ft | 418 kts | 199° |
| 2026-04-24 14:58 | 38.39128 | -96.71733 | 37866 ft | 418 kts | 199° |
| 2026-04-24 14:59 | 38.33439 | -96.73299 | 37870 ft | 419 kts | 199° |